createdAt,value
2022-10-17T00:02:24.896Z,101367.38
2022-10-17T00:07:26.675Z,101370.75
2022-10-17T00:12:28.292Z,101370.28
2022-10-17T00:17:30.164Z,101359.81
2022-10-17T00:22:31.954Z,101358.81
2022-10-17T00:27:38.057Z,101344.91
2022-10-17T00:32:39.917Z,101338.97
2022-10-17T00:37:41.315Z,101333.72
2022-10-17T00:42:42.783Z,101340.72
2022-10-17T00:47:48.439Z,101334.75
2022-10-17T00:52:50.602Z,101325.22
2022-10-17T00:57:53.062Z,101322.44
2022-10-17T01:02:54.673Z,101320.97
2022-10-17T01:07:56.545Z,101312.31
2022-10-17T01:13:13.977Z,101310.50
2022-10-17T01:18:39.946Z,101295.09
2022-10-17T01:24:08.380Z,101301.06
2022-10-17T01:29:33.448Z,101298.41
2022-10-17T01:34:44.064Z,101282.03
2022-10-17T01:39:54.129Z,101283.75
2022-10-17T01:45:07.389Z,101278.81
2022-10-17T01:50:16.740Z,101270.25
2022-10-17T01:55:27.908Z,101269.44
2022-10-17T02:00:31.255Z,101256.41
2022-10-17T02:05:38.363Z,101256.19
2022-10-17T02:10:52.110Z,101247.66
2022-10-17T02:16:20.211Z,101241.75
2022-10-17T02:21:39.962Z,101243.41
2022-10-17T02:26:47.993Z,101235.81
2022-10-17T02:32:05.644Z,101237.34
2022-10-17T02:37:10.017Z,101238.28
2022-10-17T02:42:13.833Z,101218.34
2022-10-17T02:47:20.941Z,101209.75
2022-10-17T02:52:37.261Z,101223.44
2022-10-17T02:57:44.572Z,101225.16
2022-10-17T03:02:49.288Z,101228.63
2022-10-17T03:07:51.451Z,101215.81
2022-10-17T03:12:52.871Z,101221.75
2022-10-17T03:17:54.317Z,101209.63
2022-10-17T03:22:55.763Z,101230.47
2022-10-17T03:28:01.572Z,101222.75
2022-10-17T03:33:03.041Z,101228.97
2022-10-17T03:38:04.485Z,101218.44
2022-10-17T03:43:05.981Z,101232.13
2022-10-17T03:48:07.604Z,101231.16
2022-10-17T03:53:09.029Z,101231.28
2022-10-17T03:58:10.453Z,101230.22
2022-10-17T04:03:14.946Z,101221.50
2022-10-17T04:08:18.784Z,101217.19
2022-10-17T04:13:20.268Z,101221.50
2022-10-17T04:18:21.955Z,101212.09
2022-10-17T04:23:23.374Z,101236.38
2022-10-17T04:28:26.323Z,101245.13
2022-10-17T04:33:28.561Z,101242.66
2022-10-17T04:38:31.045Z,101223.00
2022-10-17T04:43:34.305Z,101233.06
2022-10-17T04:48:35.897Z,101255.03
2022-10-17T04:53:38.513Z,101240.44
2022-10-17T04:58:40.499Z,101255.81
2022-10-17T05:03:42.332Z,101271.63
2022-10-17T05:08:44.443Z,101263.81
2022-10-17T05:13:53.240Z,101266.31
2022-10-17T05:18:56.662Z,101267.22
2022-10-17T05:23:58.501Z,101273.19
2022-10-17T05:29:02.879Z,101273.06
2022-10-17T05:34:04.521Z,101273.06
2022-10-17T05:39:06.016Z,101272.09
2022-10-17T05:44:07.400Z,101280.69
2022-10-17T05:49:15.010Z,101286.69
2022-10-17T05:54:27.317Z,101279.72
2022-10-17T05:59:28.891Z,101286.06
2022-10-17T06:04:30.350Z,101285.31
2022-10-17T06:09:31.738Z,101286.91
2022-10-17T06:14:33.444Z,101281.00
2022-10-17T06:19:35.367Z,101277.50
2022-10-17T06:24:36.762Z,101291.19
2022-10-17T06:29:38.145Z,101296.75
2022-10-17T06:34:39.808Z,101308.94
2022-10-17T06:39:41.351Z,101303.03
2022-10-17T06:44:42.841Z,101300.44
2022-10-17T06:49:44.383Z,101306.53
2022-10-17T06:54:46.087Z,101316.91
2022-10-17T06:59:48.146Z,101314.31
2022-10-17T07:04:49.986Z,101329.03
2022-10-17T07:09:51.704Z,101324.88
2022-10-17T07:14:53.178Z,101335.34
2022-10-17T07:19:54.550Z,101350.34
2022-10-17T07:24:56.190Z,101347.66
2022-10-17T07:29:57.649Z,101342.63
2022-10-17T07:34:59.051Z,101342.75
2022-10-17T07:40:00.495Z,101345.41
2022-10-17T07:45:02.224Z,101333.31
2022-10-17T07:50:05.618Z,101347.19
2022-10-17T07:55:07.882Z,101368.03
2022-10-17T08:00:11.861Z,101400.28
2022-10-17T08:05:13.388Z,101435.09
2022-10-17T08:10:16.246Z,101490.59
2022-10-17T08:15:17.701Z,101503.75
2022-10-17T08:20:19.115Z,101500.06
2022-10-17T08:25:20.720Z,101506.25
2022-10-17T08:30:22.146Z,101502.88
2022-10-17T08:35:25.244Z,101488.94
2022-10-17T08:40:29.375Z,101487.16
2022-10-17T08:45:41.425Z,101500.97
2022-10-17T08:51:05.434Z,101529.69
2022-10-17T08:56:44.028Z,101590.63
2022-10-17T09:01:58.666Z,101576.78
2022-10-17T09:07:13.038Z,101541.94
2022-10-17T09:12:49.706Z,101519.38
2022-10-17T09:17:56.408Z,101522.03
2022-10-17T09:23:02.076Z,101520.28
2022-10-17T09:28:15.624Z,101515.09
2022-10-17T09:33:42.406Z,101524.66
2022-10-17T09:38:54.421Z,101546.34
2022-10-17T09:44:12.156Z,101568.03
2022-10-17T09:49:19.823Z,101578.56
2022-10-17T09:54:30.505Z,101532.50
2022-10-17T09:59:35.411Z,101517.69
2022-10-17T10:04:59.780Z,101512.47
2022-10-17T10:10:00.280Z,101529.03
2022-10-17T10:15:02.135Z,101530.75
2022-10-17T10:20:30.648Z,101560.31
2022-10-17T10:25:32.620Z,101567.25
2022-10-17T10:30:36.221Z,101550.78
2022-10-17T10:35:40.852Z,101562.03
2022-10-17T10:40:52.639Z,101582.94
2022-10-17T10:45:54.375Z,101582.94
2022-10-17T10:51:17.439Z,101607.28
2022-10-17T10:56:40.132Z,101620.34
2022-10-17T11:01:47.546Z,101640.34
2022-10-17T11:06:52.342Z,101645.50
2022-10-17T11:12:20.481Z,101648.13
2022-10-17T11:17:33.174Z,101643.72
2022-10-17T11:22:42.210Z,101656.81
2022-10-17T11:27:43.598Z,101658.59
2022-10-17T11:32:56.890Z,101662.06
2022-10-17T11:38:15.114Z,101664.72
2022-10-17T11:43:25.549Z,101674.38
2022-10-17T11:48:51.118Z,101673.56
2022-10-17T11:54:17.597Z,101686.72
2022-10-17T12:00:07.557Z,101685.84
2022-10-17T12:05:56.514Z,101688.41
2022-10-17T12:11:05.083Z,101689.28
2022-10-17T12:16:21.489Z,101685.84
2022-10-17T12:21:22.925Z,101681.53
2022-10-17T12:26:29.516Z,101684.19
2022-10-17T12:31:34.064Z,101686.84
2022-10-17T12:36:35.852Z,101689.41
2022-10-17T12:41:40.255Z,101694.66
2022-10-17T12:47:06.168Z,101693.78
2022-10-17T12:52:11.021Z,101690.38
2022-10-17T12:57:33.811Z,101705.16
2022-10-17T13:02:35.559Z,101717.25
2022-10-17T13:07:40.719Z,101727.69
2022-10-17T13:12:42.246Z,101728.56
2022-10-17T13:17:43.980Z,101737.28
2022-10-17T13:22:46.067Z,101741.69
2022-10-17T13:27:48.886Z,101751.25
2022-10-17T13:32:50.578Z,101749.50
2022-10-17T13:37:54.157Z,101762.56
2022-10-17T13:42:57.749Z,101776.44
2022-10-17T13:48:05.515Z,101779.97
2022-10-17T13:53:08.173Z,101791.28
2022-10-17T13:58:18.889Z,101796.53
2022-10-17T14:03:21.640Z,101806.94
2022-10-17T14:08:23.811Z,101799.19
2022-10-17T14:13:28.888Z,101802.63
2022-10-17T14:18:36.386Z,101808.81
2022-10-17T14:23:45.092Z,101804.41
2022-10-17T14:28:51.126Z,101813.13
2022-10-17T14:33:53.583Z,101816.59
2022-10-17T14:38:55.119Z,101833.13
2022-10-17T14:43:59.778Z,101832.31
2022-10-17T14:49:23.247Z,101832.31
2022-10-17T14:54:27.524Z,101825.34
2022-10-17T14:59:53.371Z,101831.47
2022-10-17T15:04:50.488Z,101847.09
2022-10-17T15:09:53.475Z,101855.78
2022-10-17T15:14:55.011Z,101861.84
2022-10-17T15:19:57.272Z,101858.41
2022-10-17T15:24:58.647Z,101860.09
2022-10-17T15:30:00.260Z,101866.22
2022-10-17T15:35:01.644Z,101868.81
2022-10-17T15:40:03.644Z,101878.28
2022-10-17T15:45:05.841Z,101871.34
2022-10-17T15:50:09.026Z,101883.50
2022-10-17T15:55:11.140Z,101884.34
2022-10-17T16:00:17.367Z,101893.81
2022-10-17T16:05:26.013Z,101909.41
2022-10-17T16:10:28.225Z,101925.00
2022-10-17T16:15:29.765Z,101929.19
2022-10-17T16:20:32.053Z,101931.59
2022-10-17T16:25:33.867Z,101935.06
2022-10-17T16:30:42.488Z,101955.06
2022-10-17T16:35:45.620Z,101961.94
2022-10-17T16:40:47.042Z,101970.63
2022-10-17T16:45:48.476Z,101974.97
2022-10-17T16:50:49.859Z,101960.22
2022-10-17T16:56:05.044Z,101970.63
2022-10-17T17:01:09.743Z,101973.25
2022-10-17T17:06:19.188Z,101979.31
2022-10-17T17:11:23.791Z,101987.09
2022-10-17T17:16:26.894Z,101986.28
2022-10-17T17:21:28.389Z,101988.81
2022-10-17T17:26:32.902Z,102008.63
2022-10-17T17:31:35.642Z,102020.78
2022-10-17T17:36:38.079Z,102009.41
2022-10-17T17:41:40.603Z,102003.31
2022-10-17T17:46:43.525Z,101995.44
2022-10-17T17:51:46.453Z,102003.13
2022-10-17T17:56:47.970Z,102008.25
2022-10-17T18:01:49.464Z,102022.13
2022-10-17T18:06:50.922Z,102014.28
2022-10-17T18:11:52.562Z,102030.94
2022-10-17T18:16:53.955Z,102045.63
2022-10-17T18:21:55.373Z,102044.84
2022-10-17T18:26:59.776Z,102052.69
2022-10-17T18:32:05.962Z,102049.19
2022-10-17T18:37:07.392Z,102042.25
2022-10-17T18:42:09.585Z,102050.09
2022-10-17T18:47:11.216Z,102044.84
2022-10-17T18:52:19.922Z,102063.88
2022-10-17T18:57:26.003Z,102062.06
2022-10-17T19:02:34.270Z,102056.94
2022-10-17T19:07:40.932Z,102062.16
2022-10-17T19:12:44.947Z,102068.91
2022-10-17T19:17:46.476Z,102056.75
2022-10-17T19:22:48.171Z,102059.47
2022-10-17T19:27:51.659Z,102057.72
2022-10-17T19:32:53.316Z,102071.63
2022-10-17T19:37:55.049Z,102076.72
2022-10-17T19:42:57.050Z,102085.41
2022-10-17T19:47:58.833Z,102068.91
2022-10-17T19:53:00.381Z,102060.31
2022-10-17T19:58:03.126Z,102069.78
2022-10-17T20:03:06.949Z,102065.34
2022-10-17T20:08:14.186Z,102063.75
2022-10-17T20:13:15.868Z,102078.38
2022-10-17T20:18:17.444Z,102081.03
2022-10-17T20:23:19.320Z,102091.38
2022-10-17T20:28:20.895Z,102099.81
2022-10-17T20:33:31.753Z,102108.53
2022-10-17T20:38:33.784Z,102114.50
2022-10-17T20:43:41.190Z,102118.78
2022-10-17T20:48:43.946Z,102123.19
2022-10-17T20:53:45.801Z,102132.94
2022-10-17T20:59:08.160Z,102139.00
2022-10-17T21:09:56.165Z,102139.22
2022-10-17T21:14:58.946Z,102139.88
2022-10-17T21:20:07.095Z,102154.47
2022-10-17T21:25:10.171Z,102146.06
2022-10-17T21:30:11.868Z,102152.75
2022-10-17T21:35:20.909Z,102153.06
2022-10-17T21:40:26.061Z,102144.94
2022-10-17T21:45:28.148Z,102135.38
2022-10-17T21:50:32.809Z,102142.44
2022-10-17T21:55:43.568Z,102136.28
2022-10-17T22:00:47.376Z,102147.31
2022-10-17T22:06:06.842Z,102158.31
2022-10-17T22:11:25.520Z,102154.25
2022-10-17T22:16:39.339Z,102158.34
2022-10-17T22:21:45.381Z,102166.09
2022-10-17T22:26:54.511Z,102169.75
2022-10-17T22:31:56.042Z,102176.41
2022-10-17T22:37:09.139Z,102184.09
2022-10-17T22:47:24.451Z,102171.44
2022-10-17T22:52:26.579Z,102187.53
2022-10-17T22:57:31.636Z,102182.19
2022-10-17T23:02:40.479Z,102178.34
2022-10-17T23:07:41.939Z,102181.00
2022-10-17T23:12:43.494Z,102182.50
2022-10-17T23:17:44.914Z,102184.97
2022-10-17T23:22:46.386Z,102190.09
2022-10-17T23:27:48.111Z,102190.63
2022-10-17T23:32:49.529Z,102186.31
2022-10-17T23:37:50.920Z,102195.41
2022-10-17T23:42:52.378Z,102186.97
2022-10-17T23:47:53.771Z,102183.59
2022-10-17T23:52:55.244Z,102178.63
2022-10-17T23:57:56.660Z,102175.03
